createdAt,value
2024-04-11T00:02:35.167Z,10.91
2024-04-11T00:07:42.075Z,10.91
2024-04-11T00:12:50.264Z,10.90
2024-04-11T00:17:57.246Z,10.90
2024-04-11T00:23:03.892Z,10.87
2024-04-11T00:28:09.408Z,10.84
2024-04-11T00:33:16.210Z,10.81
2024-04-11T00:38:25.135Z,10.78
2024-04-11T00:43:32.225Z,10.79
2024-04-11T00:48:40.839Z,10.83
2024-04-11T00:53:48.199Z,10.82
2024-04-11T00:58:55.206Z,10.82
2024-04-11T01:04:06.401Z,10.83
2024-04-11T01:09:21.746Z,10.84
2024-04-11T01:14:29.218Z,10.83
2024-04-11T01:19:36.130Z,10.83
2024-04-11T01:24:43.173Z,10.81
2024-04-11T01:29:51.050Z,10.81
2024-04-11T01:34:58.405Z,10.86
2024-04-11T01:40:09.582Z,10.88
2024-04-11T01:45:16.757Z,10.86
2024-04-11T01:50:23.982Z,10.82
2024-04-11T01:55:30.656Z,10.76
2024-04-11T02:00:37.859Z,10.70
2024-04-11T02:05:46.037Z,10.64
2024-04-11T02:10:52.898Z,10.60
2024-04-11T02:16:01.007Z,10.61
2024-04-11T02:21:09.829Z,10.60
2024-04-11T02:26:16.826Z,10.58
2024-04-11T02:31:22.027Z,10.56
2024-04-11T02:36:30.991Z,10.53
2024-04-11T02:41:39.075Z,10.50
2024-04-11T02:46:46.215Z,10.46
2024-04-11T02:51:53.396Z,10.45
2024-04-11T02:57:00.115Z,10.42
2024-04-11T03:02:09.752Z,10.40
2024-04-11T03:07:17.145Z,10.36
2024-04-11T03:12:24.794Z,10.34
2024-04-11T03:17:32.520Z,10.30
2024-04-11T03:22:39.647Z,10.27
2024-04-11T03:27:46.756Z,10.29
2024-04-11T03:32:53.926Z,10.34
2024-04-11T03:38:00.996Z,10.35
2024-04-11T03:43:08.150Z,10.34
2024-04-11T03:48:14.953Z,10.31
2024-04-11T03:53:21.805Z,10.27
2024-04-11T03:58:28.989Z,10.27
2024-04-11T04:03:36.583Z,10.26
2024-04-11T04:08:46.091Z,10.25
2024-04-11T04:13:53.771Z,10.25
2024-04-11T04:19:00.569Z,10.25
2024-04-11T04:24:09.790Z,10.22
2024-04-11T04:29:18.526Z,10.20
2024-04-11T04:34:26.785Z,10.18
2024-04-11T04:39:39.294Z,10.17
2024-04-11T04:44:48.018Z,10.20
2024-04-11T04:49:54.910Z,10.22
2024-04-11T04:55:01.202Z,10.28
2024-04-11T05:00:15.139Z,10.29
2024-04-11T05:05:22.471Z,10.31
2024-04-11T05:10:30.471Z,10.38
2024-04-11T05:15:37.223Z,10.45
2024-04-11T05:20:44.285Z,10.51
2024-04-11T05:25:51.109Z,10.54
2024-04-11T05:30:58.632Z,10.55
2024-04-11T05:36:07.703Z,10.57
2024-04-11T05:41:15.847Z,10.59
2024-04-11T05:46:24.091Z,10.63
2024-04-11T05:51:31.254Z,10.70
2024-04-11T05:56:38.699Z,10.78
2024-04-11T06:01:46.039Z,10.87
2024-04-11T06:06:53.343Z,10.95
2024-04-11T06:12:00.746Z,11.06
2024-04-11T06:17:09.034Z,11.16
2024-04-11T06:22:18.160Z,11.21
2024-04-11T06:27:25.065Z,11.29
2024-04-11T06:32:32.768Z,11.32
2024-04-11T06:37:43.191Z,11.37
2024-04-11T06:42:51.440Z,11.36
2024-04-11T06:47:59.148Z,11.40
2024-04-11T06:53:07.237Z,11.47
2024-04-11T06:58:14.835Z,11.52
2024-04-11T07:03:26.864Z,11.68
2024-04-11T07:08:33.790Z,11.81
2024-04-11T07:13:40.860Z,11.89
2024-04-11T07:18:50.687Z,11.87
2024-04-11T07:24:00.464Z,11.91
2024-04-11T07:29:08.165Z,12.00
2024-04-11T07:34:15.839Z,12.09
2024-04-11T07:39:22.468Z,12.18
2024-04-11T07:44:29.412Z,12.27
2024-04-11T07:55:28.737Z,12.58
2024-04-11T08:00:40.734Z,12.54
2024-04-11T08:05:48.076Z,12.63
2024-04-11T08:11:04.235Z,12.77
2024-04-11T08:16:11.730Z,12.86
2024-04-11T08:21:18.599Z,12.98
2024-04-11T08:26:25.455Z,13.09
2024-04-11T08:31:32.302Z,13.24
2024-04-11T08:36:38.966Z,13.35
2024-04-11T08:41:45.407Z,13.46
2024-04-11T08:46:50.543Z,13.52
2024-04-11T08:57:49.101Z,13.49
2024-04-11T09:02:57.652Z,13.59
2024-04-11T09:08:06.822Z,13.63
2024-04-11T09:13:19.197Z,13.59
2024-04-11T09:18:28.666Z,13.58
2024-04-11T09:23:49.092Z,13.71
2024-04-11T09:28:56.407Z,13.83
2024-04-11T09:34:04.198Z,13.92
2024-04-11T09:39:14.772Z,14.06
2024-04-11T09:44:33.156Z,14.18
2024-04-11T09:49:42.159Z,14.28
2024-04-11T09:54:51.451Z,14.39
2024-04-11T09:59:58.259Z,14.53
2024-04-11T10:05:07.797Z,14.64
2024-04-11T10:10:27.145Z,14.73
2024-04-11T10:15:36.472Z,14.74
2024-04-11T10:20:45.930Z,14.68
2024-04-11T10:25:54.197Z,14.60
2024-04-11T10:31:01.133Z,14.61
2024-04-11T10:36:14.642Z,14.63
2024-04-11T10:41:21.544Z,14.77
2024-04-11T10:46:30.365Z,14.91
2024-04-11T10:51:39.912Z,14.97
2024-04-11T10:56:48.125Z,15.07
2024-04-11T11:02:06.430Z,15.20
2024-04-11T11:07:14.133Z,15.31
2024-04-11T11:12:24.520Z,15.35
2024-04-11T11:17:33.059Z,15.31
2024-04-11T11:22:42.317Z,15.31
2024-04-11T11:27:51.261Z,15.29
2024-04-11T11:32:58.643Z,15.26
2024-04-11T11:38:07.531Z,15.25
2024-04-11T11:43:18.013Z,15.30
2024-04-11T11:48:31.927Z,15.50
2024-04-11T11:53:47.202Z,15.68
2024-04-11T11:58:54.024Z,15.85
2024-04-11T12:04:01.858Z,15.99
2024-04-11T12:09:12.696Z,16.11
2024-04-11T12:14:30.678Z,16.22
2024-04-11T12:19:37.717Z,16.37
2024-04-11T12:24:47.405Z,16.49
2024-04-11T12:29:54.382Z,16.51
2024-04-11T12:35:01.449Z,16.37
2024-04-11T12:40:10.085Z,16.27
2024-04-11T12:45:19.792Z,16.20
2024-04-11T12:50:29.787Z,16.16
2024-04-11T12:55:37.521Z,16.19
2024-04-11T13:00:46.120Z,16.26
2024-04-11T13:05:55.955Z,16.25
2024-04-11T13:11:09.750Z,16.24
2024-04-11T13:16:20.315Z,16.29
2024-04-11T13:21:40.231Z,16.32
2024-04-11T13:26:52.984Z,16.29
2024-04-11T13:31:59.772Z,16.32
2024-04-11T13:37:09.157Z,16.37
2024-04-11T13:42:16.173Z,16.45
2024-04-11T13:47:27.357Z,16.48
2024-04-11T13:52:34.335Z,16.52
2024-04-11T13:57:42.561Z,16.50
2024-04-11T14:03:00.644Z,16.41
2024-04-11T14:08:08.591Z,16.28
2024-04-11T14:13:16.374Z,16.21
2024-04-11T14:18:30.647Z,16.25
2024-04-11T14:23:54.228Z,16.27
2024-04-11T14:29:03.625Z,16.28
2024-04-11T14:34:24.676Z,16.23
2024-04-11T14:39:35.356Z,16.21
2024-04-11T14:44:46.255Z,16.18
2024-04-11T14:49:57.022Z,16.14
2024-04-11T14:55:11.034Z,16.12
2024-04-11T15:00:36.963Z,16.09
2024-04-11T15:05:45.720Z,16.06
2024-04-11T15:11:02.094Z,16.05
2024-04-11T15:16:32.893Z,16.02
2024-04-11T15:21:46.120Z,15.98
2024-04-11T15:26:56.123Z,15.94
2024-04-11T15:32:07.643Z,15.88
2024-04-11T15:37:30.525Z,15.87
2024-04-11T15:42:38.284Z,15.87
2024-04-11T15:47:45.283Z,15.91
2024-04-11T15:52:54.919Z,15.92
2024-04-11T15:58:13.959Z,15.88
2024-04-11T16:03:22.227Z,15.86
2024-04-11T16:08:34.587Z,15.83
2024-04-11T16:13:41.803Z,15.80
2024-04-11T16:18:49.163Z,15.82
2024-04-11T16:23:59.571Z,15.84
2024-04-11T16:29:08.884Z,15.82
2024-04-11T16:34:20.627Z,15.76
2024-04-11T16:39:41.023Z,15.68
2024-04-11T16:45:01.172Z,15.64
2024-04-11T16:50:10.554Z,15.60
2024-04-11T16:55:28.368Z,15.55
2024-04-11T17:00:42.835Z,15.49
2024-04-11T17:05:57.516Z,15.42
2024-04-11T17:11:08.211Z,15.28
2024-04-11T17:16:19.245Z,15.09
2024-04-11T17:21:31.169Z,14.84
2024-04-11T17:26:40.397Z,14.61
2024-04-11T17:31:56.012Z,14.36
2024-04-11T17:37:16.018Z,14.15
2024-04-11T17:42:26.251Z,14.05
2024-04-11T17:47:33.239Z,13.93
2024-04-11T17:52:51.916Z,13.74
2024-04-11T17:58:01.814Z,13.63
2024-04-11T18:03:12.031Z,13.53
2024-04-11T18:08:21.959Z,13.44
2024-04-11T18:13:34.723Z,13.37
2024-04-11T18:18:49.233Z,13.34
2024-04-11T18:23:57.357Z,13.34
2024-04-11T18:29:08.747Z,13.33
2024-04-11T18:34:15.433Z,13.26
2024-04-11T18:39:23.701Z,13.16
2024-04-11T18:44:51.709Z,13.04
2024-04-11T18:49:59.404Z,12.88
2024-04-11T18:55:13.111Z,12.70
2024-04-11T19:00:21.806Z,12.54
2024-04-11T19:05:31.428Z,12.40
2024-04-11T19:10:42.657Z,12.27
2024-04-11T19:15:50.206Z,12.15
2024-04-11T19:21:04.879Z,12.01
2024-04-11T19:26:17.100Z,11.89
2024-04-11T19:31:23.832Z,11.83
2024-04-11T19:36:35.283Z,11.68
2024-04-11T19:41:43.245Z,11.65
2024-04-11T19:46:59.334Z,11.56
2024-04-11T19:52:06.925Z,11.53
2024-04-11T19:57:17.083Z,11.45
2024-04-11T20:02:25.679Z,11.44
2024-04-11T20:07:41.943Z,11.27
2024-04-11T20:12:55.150Z,11.03
2024-04-11T20:18:02.629Z,10.90
2024-04-11T20:23:10.879Z,10.81
2024-04-11T20:28:28.336Z,10.86
2024-04-11T20:33:35.998Z,10.98
2024-04-11T20:38:45.403Z,10.93
2024-04-11T20:43:59.640Z,10.85
2024-04-11T20:49:21.364Z,10.69
2024-04-11T20:54:44.910Z,10.60
2024-04-11T21:00:09.433Z,10.55
2024-04-11T21:05:34.616Z,10.49
2024-04-11T21:11:00.046Z,10.39
2024-04-11T21:16:25.477Z,10.26
2024-04-11T21:21:49.920Z,10.13
2024-04-11T21:27:14.146Z,10.03
2024-04-11T21:32:39.381Z,9.99
2024-04-11T21:37:47.640Z,10.00
2024-04-11T21:42:55.254Z,9.92
2024-04-11T21:48:02.504Z,9.90
2024-04-11T21:53:18.791Z,9.93
2024-04-11T21:58:26.624Z,9.84
2024-04-11T22:03:33.968Z,9.71
2024-04-11T22:08:46.349Z,9.62
2024-04-11T22:13:54.692Z,9.47
2024-04-11T22:19:01.669Z,9.34
2024-04-11T22:24:07.264Z,9.25
2024-04-11T22:29:14.712Z,9.21
2024-04-11T22:34:25.819Z,9.14
2024-04-11T22:39:38.168Z,9.05
2024-04-11T22:44:49.313Z,8.92
2024-04-11T22:50:05.456Z,8.79
2024-04-11T22:55:17.449Z,8.63
2024-04-11T23:00:31.956Z,8.52
2024-04-11T23:05:53.330Z,8.46
2024-04-11T23:11:13.471Z,8.50
2024-04-11T23:16:35.666Z,8.55
2024-04-11T23:22:00.421Z,8.50
2024-04-11T23:27:18.352Z,8.45
2024-04-11T23:32:30.558Z,8.38
2024-04-11T23:37:37.473Z,8.36
2024-04-11T23:42:47.997Z,8.35
2024-04-11T23:47:56.903Z,8.33
2024-04-11T23:53:16.238Z,8.33
2024-04-11T23:58:30.798Z,8.17
